RYR334 EHRD-EDDS
Flight info
| Callsign | RYR334 |
|---|---|
| Flight time | N/A |
| Altitude | 31000 |
| Route | LUNIX Z739 DEGOM L603 BOMBI N850 KRH T128 BADSO BADSO2A |
| Aircraft | B738/M-SDE2E3FGHIRWXY/LB1 |
Departure
| Time | 2026-04-28 16:01 |
|---|---|
| Airport | Rotterdam The Hague Airport (EHRD) |
Arrival
| Time | N/A |
|---|---|
| Airport | Stuttgart Airport (EDDS) |
| Time | Latitude | Longitude | Altitude | Speed | Heading |
|---|---|---|---|---|---|
| 2026-04-28 15:50 | 51.95111 | 4.43487 | -7 ft | 0 kts | 327° |
| 2026-04-28 15:57 | 51.95112 | 4.43485 | -7 ft | 1 kts | 327° |
| 2026-04-28 15:58 | 51.95139 | 4.43471 | -6 ft | 6 kts | 8° |
| 2026-04-28 15:58 | 51.95182 | 4.43487 | -6 ft | 6 kts | 348° |
| 2026-04-28 15:58 | 51.95223 | 4.43454 | -6 ft | 8 kts | 327° |
| 2026-04-28 15:58 | 51.95234 | 4.43401 | -6 ft | 5 kts | 258° |
| 2026-04-28 15:59 | 51.95216 | 4.43341 | -6 ft | 8 kts | 237° |
| 2026-04-28 15:59 | 51.95189 | 4.43271 | -6 ft | 13 kts | 238° |
| 2026-04-28 15:59 | 51.95125 | 4.43082 | -6 ft | 15 kts | 247° |
| 2026-04-28 15:59 | 51.95126 | 4.42933 | -6 ft | 13 kts | 313° |
| 2026-04-28 16:00 | 51.95200 | 4.42865 | -6 ft | 10 kts | 351° |
| 2026-04-28 16:00 | 51.95248 | 4.42909 | -6 ft | 8 kts | 56° |
| 2026-04-28 16:00 | 51.95282 | 4.42996 | -6 ft | 20 kts | 58° |
| 2026-04-28 16:00 | 51.95500 | 4.43548 | -6 ft | 97 kts | 57° |
| 2026-04-28 16:01 | 51.95995 | 4.44788 | 13 ft | 160 kts | 57° |
| 2026-04-28 16:01 | 51.96387 | 4.45777 | 260 ft | 176 kts | 57° |
| 2026-04-28 16:01 | 51.97364 | 4.48200 | 1020 ft | 205 kts | 56° |
| 2026-04-28 16:01 | 51.98119 | 4.50108 | 1986 ft | 202 kts | 59° |
| 2026-04-28 16:02 | 51.98834 | 4.52113 | 2552 ft | 216 kts | 64° |
| 2026-04-28 16:02 | 51.99467 | 4.54465 | 2777 ft | 242 kts | 75° |
| 2026-04-28 16:02 | 51.99572 | 4.57235 | 2802 ft | 249 kts | 93° |
| 2026-04-28 16:02 | 51.99526 | 4.59073 | 2942 ft | 245 kts | 93° |
| 2026-04-28 16:03 | 51.99459 | 4.61826 | 3122 ft | 251 kts | 92° |
| 2026-04-28 16:03 | 51.99393 | 4.64788 | 3571 ft | 268 kts | 92° |
| 2026-04-28 16:03 | 51.99333 | 4.67810 | 4507 ft | 269 kts | 92° |
| 2026-04-28 16:03 | 51.99245 | 4.73245 | 6089 ft | 274 kts | 92° |
| 2026-04-28 16:04 | 51.99082 | 4.85892 | 9389 ft | 287 kts | 91° |
| 2026-04-28 16:04 | 51.98924 | 4.99206 | 11969 ft | 318 kts | 91° |
| 2026-04-28 16:04 | 51.98787 | 5.10003 | 13133 ft | 360 kts | 91° |
| 2026-04-28 16:04 | 51.98673 | 5.18468 | 13953 ft | 384 kts | 91° |
| 2026-04-28 16:05 | 51.98550 | 5.27217 | 15195 ft | 392 kts | 91° |
| 2026-04-28 16:05 | 51.99235 | 5.35999 | 16406 ft | 399 kts | 71° |
| 2026-04-28 16:05 | 52.01182 | 5.44522 | 17554 ft | 406 kts | 70° |
| 2026-04-28 16:05 | 52.02842 | 5.53356 | 18608 ft | 413 kts | 83° |
| 2026-04-28 16:06 | 52.01995 | 5.65373 | 20001 ft | 419 kts | 111° |
| 2026-04-28 16:06 | 52.00856 | 5.69741 | 20474 ft | 422 kts | 113° |
| 2026-04-28 16:06 | 51.99739 | 5.74185 | 20932 ft | 426 kts | 111° |
| 2026-04-28 16:06 | 51.98686 | 5.78694 | 21381 ft | 429 kts | 111° |
| 2026-04-28 16:07 | 51.97462 | 5.83114 | 21811 ft | 432 kts | 121° |
| 2026-04-28 16:07 | 51.88633 | 5.92860 | 23431 ft | 436 kts | 149° |